sensor_id;sensor_type;location;lat;lon;timestamp;P1;durP1;ratioP1;P2;durP2;ratioP2
69856;SDS011;57147;53.582;10.112;2024-01-30T00:02:33;10.95;;;7.97;;
69856;SDS011;57147;53.582;10.112;2024-01-30T00:07:34;10.65;;;6.10;;
69856;SDS011;57147;53.582;10.112;2024-01-30T00:12:35;9.40;;;6.05;;
69856;SDS011;57147;53.582;10.112;2024-01-30T00:17:36;9.95;;;6.30;;
69856;SDS011;57147;53.582;10.112;2024-01-30T00:22:36;8.32;;;6.32;;
69856;SDS011;57147;53.582;10.112;2024-01-30T00:27:37;7.97;;;5.53;;
69856;SDS011;57147;53.582;10.112;2024-01-30T00:32:37;8.65;;;6.45;;
69856;SDS011;57147;53.582;10.112;2024-01-30T00:37:37;11.27;;;7.43;;
69856;SDS011;57147;53.582;10.112;2024-01-30T00:42:37;9.23;;;6.20;;
69856;SDS011;57147;53.582;10.112;2024-01-30T00:47:37;10.02;;;6.20;;
69856;SDS011;57147;53.582;10.112;2024-01-30T00:52:38;9.18;;;5.60;;
69856;SDS011;57147;53.582;10.112;2024-01-30T00:57:39;9.77;;;6.97;;
69856;SDS011;57147;53.582;10.112;2024-01-30T01:02:40;9.98;;;6.03;;
69856;SDS011;57147;53.582;10.112;2024-01-30T01:07:40;9.85;;;5.38;;
69856;SDS011;57147;53.582;10.112;2024-01-30T01:12:40;9.60;;;6.05;;
69856;SDS011;57147;53.582;10.112;2024-01-30T01:17:40;9.48;;;5.38;;
69856;SDS011;57147;53.582;10.112;2024-01-30T01:22:41;8.33;;;5.47;;
69856;SDS011;57147;53.582;10.112;2024-01-30T01:27:41;7.87;;;5.80;;
69856;SDS011;57147;53.582;10.112;2024-01-30T01:32:41;9.65;;;7.35;;
69856;SDS011;57147;53.582;10.112;2024-01-30T01:37:42;6.65;;;5.45;;
69856;SDS011;57147;53.582;10.112;2024-01-30T01:42:42;8.10;;;5.78;;
69856;SDS011;57147;53.582;10.112;2024-01-30T01:47:42;7.68;;;6.03;;
69856;SDS011;57147;53.582;10.112;2024-01-30T01:52:43;7.65;;;6.10;;
69856;SDS011;57147;53.582;10.112;2024-01-30T01:57:46;8.13;;;5.63;;
69856;SDS011;57147;53.582;10.112;2024-01-30T02:02:47;7.82;;;5.30;;
69856;SDS011;57147;53.582;10.112;2024-01-30T02:07:47;8.40;;;6.83;;
69856;SDS011;57147;53.582;10.112;2024-01-30T02:12:48;10.32;;;7.05;;
69856;SDS011;57147;53.582;10.112;2024-01-30T02:17:51;8.13;;;6.15;;
69856;SDS011;57147;53.582;10.112;2024-01-30T02:22:54;8.43;;;6.30;;
69856;SDS011;57147;53.582;10.112;2024-01-30T02:27:56;8.10;;;5.57;;
69856;SDS011;57147;53.582;10.112;2024-01-30T02:32:56;8.50;;;6.50;;
69856;SDS011;57147;53.582;10.112;2024-01-30T02:37:56;9.40;;;8.45;;
69856;SDS011;57147;53.582;10.112;2024-01-30T02:42:58;9.17;;;6.10;;
69856;SDS011;57147;53.582;10.112;2024-01-30T02:47:59;9.70;;;7.45;;
69856;SDS011;57147;53.582;10.112;2024-01-30T02:52:59;10.05;;;9.05;;
69856;SDS011;57147;53.582;10.112;2024-01-30T02:57:59;11.15;;;6.45;;
69856;SDS011;57147;53.582;10.112;2024-01-30T03:03:00;7.72;;;4.97;;
69856;SDS011;57147;53.582;10.112;2024-01-30T03:08:00;9.15;;;6.38;;
69856;SDS011;57147;53.582;10.112;2024-01-30T03:13:00;8.05;;;5.95;;
69856;SDS011;57147;53.582;10.112;2024-01-30T03:18:01;8.63;;;6.00;;
69856;SDS011;57147;53.582;10.112;2024-01-30T03:23:02;9.77;;;6.38;;
69856;SDS011;57147;53.582;10.112;2024-01-30T03:28:02;8.10;;;6.43;;
69856;SDS011;57147;53.582;10.112;2024-01-30T03:33:03;12.13;;;6.00;;
69856;SDS011;57147;53.582;10.112;2024-01-30T03:38:03;9.55;;;6.30;;
69856;SDS011;57147;53.582;10.112;2024-01-30T03:43:03;8.50;;;6.40;;
69856;SDS011;57147;53.582;10.112;2024-01-30T03:48:04;10.50;;;6.97;;
69856;SDS011;57147;53.582;10.112;2024-01-30T03:53:05;10.38;;;7.20;;
69856;SDS011;57147;53.582;10.112;2024-01-30T03:58:05;8.82;;;7.20;;
69856;SDS011;57147;53.582;10.112;2024-01-30T04:03:05;11.05;;;6.97;;
69856;SDS011;57147;53.582;10.112;2024-01-30T04:08:05;7.70;;;6.32;;
69856;SDS011;57147;53.582;10.112;2024-01-30T04:13:06;10.40;;;6.90;;
69856;SDS011;57147;53.582;10.112;2024-01-30T04:18:08;9.65;;;6.43;;
69856;SDS011;57147;53.582;10.112;2024-01-30T04:23:08;8.35;;;6.05;;
69856;SDS011;57147;53.582;10.112;2024-01-30T04:28:15;9.30;;;6.90;;
69856;SDS011;57147;53.582;10.112;2024-01-30T04:33:16;9.43;;;6.90;;
69856;SDS011;57147;53.582;10.112;2024-01-30T04:38:16;8.43;;;7.05;;
69856;SDS011;57147;53.582;10.112;2024-01-30T04:43:16;9.55;;;7.55;;
69856;SDS011;57147;53.582;10.112;2024-01-30T04:48:16;10.13;;;7.45;;
69856;SDS011;57147;53.582;10.112;2024-01-30T04:53:16;11.02;;;7.88;;
69856;SDS011;57147;53.582;10.112;2024-01-30T04:58:17;12.65;;;8.60;;
69856;SDS011;57147;53.582;10.112;2024-01-30T05:03:18;14.05;;;8.25;;
69856;SDS011;57147;53.582;10.112;2024-01-30T05:08:19;11.65;;;8.00;;
69856;SDS011;57147;53.582;10.112;2024-01-30T05:13:20;12.10;;;8.00;;
69856;SDS011;57147;53.582;10.112;2024-01-30T05:18:20;10.95;;;8.15;;
69856;SDS011;57147;53.582;10.112;2024-01-30T05:23:21;10.77;;;7.10;;
69856;SDS011;57147;53.582;10.112;2024-01-30T05:28:21;10.00;;;6.10;;
69856;SDS011;57147;53.582;10.112;2024-01-30T05:33:21;11.52;;;8.35;;
69856;SDS011;57147;53.582;10.112;2024-01-30T05:38:22;11.35;;;7.68;;
69856;SDS011;57147;53.582;10.112;2024-01-30T05:43:22;11.65;;;7.97;;
69856;SDS011;57147;53.582;10.112;2024-01-30T05:48:22;11.75;;;7.57;;
69856;SDS011;57147;53.582;10.112;2024-01-30T05:53:22;14.80;;;9.13;;
69856;SDS011;57147;53.582;10.112;2024-01-30T05:58:22;11.55;;;7.85;;
69856;SDS011;57147;53.582;10.112;2024-01-30T06:03:23;12.27;;;8.63;;
69856;SDS011;57147;53.582;10.112;2024-01-30T06:08:23;13.50;;;9.77;;
69856;SDS011;57147;53.582;10.112;2024-01-30T06:13:23;11.55;;;8.50;;
69856;SDS011;57147;53.582;10.112;2024-01-30T06:18:24;11.90;;;8.43;;
69856;SDS011;57147;53.582;10.112;2024-01-30T06:23:24;12.93;;;8.40;;
69856;SDS011;57147;53.582;10.112;2024-01-30T06:28:24;12.88;;;9.27;;
69856;SDS011;57147;53.582;10.112;2024-01-30T06:33:24;15.68;;;9.75;;
69856;SDS011;57147;53.582;10.112;2024-01-30T06:38:25;14.30;;;7.85;;
69856;SDS011;57147;53.582;10.112;2024-01-30T06:43:25;12.55;;;8.73;;
69856;SDS011;57147;53.582;10.112;2024-01-30T06:48:25;16.58;;;9.30;;
69856;SDS011;57147;53.582;10.112;2024-01-30T06:53:25;12.40;;;8.80;;
69856;SDS011;57147;53.582;10.112;2024-01-30T06:58:27;11.87;;;8.70;;
69856;SDS011;57147;53.582;10.112;2024-01-30T07:03:27;18.20;;;12.05;;
69856;SDS011;57147;53.582;10.112;2024-01-30T07:08:27;14.43;;;9.83;;
69856;SDS011;57147;53.582;10.112;2024-01-30T07:13:27;14.15;;;9.50;;
69856;SDS011;57147;53.582;10.112;2024-01-30T07:18:28;14.60;;;10.17;;
69856;SDS011;57147;53.582;10.112;2024-01-30T07:23:28;16.58;;;12.07;;
69856;SDS011;57147;53.582;10.112;2024-01-30T07:28:28;13.85;;;9.70;;
69856;SDS011;57147;53.582;10.112;2024-01-30T07:33:29;12.98;;;9.32;;
69856;SDS011;57147;53.582;10.112;2024-01-30T07:38:31;14.00;;;8.88;;
69856;SDS011;57147;53.582;10.112;2024-01-30T07:43:35;13.90;;;8.77;;
69856;SDS011;57147;53.582;10.112;2024-01-30T07:48:35;16.23;;;14.55;;
69856;SDS011;57147;53.582;10.112;2024-01-30T07:53:35;14.53;;;10.60;;
69856;SDS011;57147;53.582;10.112;2024-01-30T08:04:13;16.10;;;9.75;;
69856;SDS011;57147;53.582;10.112;2024-01-30T08:09:14;13.18;;;9.10;;
69856;SDS011;57147;53.582;10.112;2024-01-30T08:14:14;12.98;;;9.60;;
69856;SDS011;57147;53.582;10.112;2024-01-30T08:19:14;14.77;;;12.15;;
69856;SDS011;57147;53.582;10.112;2024-01-30T08:24:15;17.50;;;10.98;;
69856;SDS011;57147;53.582;10.112;2024-01-30T08:29:15;12.52;;;8.68;;
69856;SDS011;57147;53.582;10.112;2024-01-30T08:34:15;13.27;;;10.13;;
69856;SDS011;57147;53.582;10.112;2024-01-30T08:39:16;14.75;;;9.75;;
69856;SDS011;57147;53.582;10.112;2024-01-30T08:44:16;18.63;;;9.75;;
69856;SDS011;57147;53.582;10.112;2024-01-30T08:49:17;13.10;;;9.43;;
69856;SDS011;57147;53.582;10.112;2024-01-30T08:54:17;13.47;;;10.13;;
69856;SDS011;57147;53.582;10.112;2024-01-30T08:59:17;13.57;;;9.98;;
69856;SDS011;57147;53.582;10.112;2024-01-30T09:04:18;12.88;;;9.68;;
69856;SDS011;57147;53.582;10.112;2024-01-30T09:09:18;13.00;;;9.00;;
69856;SDS011;57147;53.582;10.112;2024-01-30T09:14:18;13.05;;;8.80;;
69856;SDS011;57147;53.582;10.112;2024-01-30T09:19:18;12.13;;;8.95;;
69856;SDS011;57147;53.582;10.112;2024-01-30T09:24:18;15.60;;;11.18;;
69856;SDS011;57147;53.582;10.112;2024-01-30T09:29:19;26.60;;;14.68;;
69856;SDS011;57147;53.582;10.112;2024-01-30T09:34:19;17.80;;;12.53;;
69856;SDS011;57147;53.582;10.112;2024-01-30T09:39:19;15.30;;;10.97;;
69856;SDS011;57147;53.582;10.112;2024-01-30T09:44:20;17.43;;;11.77;;
69856;SDS011;57147;53.582;10.112;2024-01-30T09:49:20;18.00;;;14.02;;
69856;SDS011;57147;53.582;10.112;2024-01-30T09:54:20;12.17;;;9.00;;
69856;SDS011;57147;53.582;10.112;2024-01-30T09:59:21;14.32;;;9.27;;
69856;SDS011;57147;53.582;10.112;2024-01-30T10:04:21;13.33;;;9.17;;
69856;SDS011;57147;53.582;10.112;2024-01-30T10:09:22;13.00;;;9.73;;
69856;SDS011;57147;53.582;10.112;2024-01-30T10:14:22;12.38;;;9.65;;
69856;SDS011;57147;53.582;10.112;2024-01-30T10:19:22;14.48;;;9.60;;
69856;SDS011;57147;53.582;10.112;2024-01-30T10:24:26;13.85;;;8.70;;
69856;SDS011;57147;53.582;10.112;2024-01-30T10:29:27;12.40;;;9.68;;
69856;SDS011;57147;53.582;10.112;2024-01-30T10:34:27;13.13;;;9.40;;
69856;SDS011;57147;53.582;10.112;2024-01-30T10:39:29;11.88;;;8.88;;
69856;SDS011;57147;53.582;10.112;2024-01-30T10:44:29;14.10;;;10.40;;
69856;SDS011;57147;53.582;10.112;2024-01-30T10:49:33;12.02;;;9.57;;
69856;SDS011;57147;53.582;10.112;2024-01-30T10:54:34;14.13;;;10.02;;
69856;SDS011;57147;53.582;10.112;2024-01-30T10:59:35;13.50;;;8.80;;
69856;SDS011;57147;53.582;10.112;2024-01-30T11:04:40;13.77;;;8.60;;
69856;SDS011;57147;53.582;10.112;2024-01-30T11:09:48;12.57;;;8.93;;
69856;SDS011;57147;53.582;10.112;2024-01-30T11:14:49;11.88;;;8.80;;
69856;SDS011;57147;53.582;10.112;2024-01-30T11:19:50;11.05;;;7.90;;
69856;SDS011;57147;53.582;10.112;2024-01-30T11:24:51;14.30;;;8.35;;
69856;SDS011;57147;53.582;10.112;2024-01-30T11:29:52;12.57;;;8.38;;
69856;SDS011;57147;53.582;10.112;2024-01-30T11:34:52;15.30;;;9.98;;
69856;SDS011;57147;53.582;10.112;2024-01-30T11:39:53;13.30;;;9.02;;
69856;SDS011;57147;53.582;10.112;2024-01-30T11:44:53;13.90;;;9.07;;
69856;SDS011;57147;53.582;10.112;2024-01-30T11:49:54;12.35;;;9.10;;
69856;SDS011;57147;53.582;10.112;2024-01-30T11:54:54;12.57;;;7.90;;
69856;SDS011;57147;53.582;10.112;2024-01-30T11:59:54;15.83;;;10.00;;
69856;SDS011;57147;53.582;10.112;2024-01-30T12:04:55;11.90;;;8.77;;
69856;SDS011;57147;53.582;10.112;2024-01-30T12:09:55;15.57;;;10.07;;
69856;SDS011;57147;53.582;10.112;2024-01-30T12:15:02;15.98;;;8.93;;
69856;SDS011;57147;53.582;10.112;2024-01-30T12:20:10;12.95;;;8.95;;
69856;SDS011;57147;53.582;10.112;2024-01-30T12:25:11;12.93;;;10.13;;
69856;SDS011;57147;53.582;10.112;2024-01-30T12:30:13;12.93;;;10.50;;
69856;SDS011;57147;53.582;10.112;2024-01-30T12:35:14;13.15;;;8.95;;
69856;SDS011;57147;53.582;10.112;2024-01-30T12:40:15;12.35;;;8.23;;
69856;SDS011;57147;53.582;10.112;2024-01-30T12:45:16;13.07;;;10.32;;
69856;SDS011;57147;53.582;10.112;2024-01-30T12:50:16;16.67;;;9.27;;
69856;SDS011;57147;53.582;10.112;2024-01-30T12:55:17;11.10;;;8.03;;
69856;SDS011;57147;53.582;10.112;2024-01-30T13:00:17;13.63;;;10.05;;
69856;SDS011;57147;53.582;10.112;2024-01-30T13:05:17;15.03;;;9.60;;
69856;SDS011;57147;53.582;10.112;2024-01-30T13:10:18;19.07;;;12.23;;
69856;SDS011;57147;53.582;10.112;2024-01-30T13:15:18;15.20;;;9.90;;
69856;SDS011;57147;53.582;10.112;2024-01-30T13:20:18;16.58;;;8.73;;
69856;SDS011;57147;53.582;10.112;2024-01-30T13:25:19;16.70;;;9.82;;
69856;SDS011;57147;53.582;10.112;2024-01-30T13:30:19;16.02;;;9.40;;
69856;SDS011;57147;53.582;10.112;2024-01-30T13:35:19;12.18;;;8.23;;
69856;SDS011;57147;53.582;10.112;2024-01-30T13:40:19;13.53;;;7.93;;
69856;SDS011;57147;53.582;10.112;2024-01-30T13:45:20;14.32;;;10.07;;
69856;SDS011;57147;53.582;10.112;2024-01-30T13:50:20;10.93;;;7.30;;
69856;SDS011;57147;53.582;10.112;2024-01-30T13:55:20;13.70;;;8.02;;
69856;SDS011;57147;53.582;10.112;2024-01-30T14:00:21;14.70;;;7.10;;
69856;SDS011;57147;53.582;10.112;2024-01-30T14:05:21;12.15;;;7.47;;
69856;SDS011;57147;53.582;10.112;2024-01-30T14:10:22;9.95;;;6.80;;
69856;SDS011;57147;53.582;10.112;2024-01-30T14:15:22;14.75;;;7.38;;
69856;SDS011;57147;53.582;10.112;2024-01-30T14:20:22;13.07;;;7.55;;
69856;SDS011;57147;53.582;10.112;2024-01-30T14:25:22;27.88;;;16.75;;
69856;SDS011;57147;53.582;10.112;2024-01-30T14:30:23;11.05;;;7.22;;
69856;SDS011;57147;53.582;10.112;2024-01-30T14:35:23;12.60;;;7.77;;
69856;SDS011;57147;53.582;10.112;2024-01-30T14:40:23;11.60;;;7.93;;
69856;SDS011;57147;53.582;10.112;2024-01-30T14:45:23;13.15;;;7.90;;
69856;SDS011;57147;53.582;10.112;2024-01-30T14:50:24;11.55;;;7.65;;
69856;SDS011;57147;53.582;10.112;2024-01-30T14:55:24;11.10;;;7.47;;
69856;SDS011;57147;53.582;10.112;2024-01-30T15:00:24;15.55;;;7.90;;
69856;SDS011;57147;53.582;10.112;2024-01-30T15:05:25;12.75;;;7.50;;
69856;SDS011;57147;53.582;10.112;2024-01-30T15:10:25;13.90;;;8.57;;
69856;SDS011;57147;53.582;10.112;2024-01-30T15:15:25;12.05;;;8.15;;
69856;SDS011;57147;53.582;10.112;2024-01-30T15:20:25;12.93;;;8.38;;
69856;SDS011;57147;53.582;10.112;2024-01-30T15:25:26;10.95;;;8.20;;
69856;SDS011;57147;53.582;10.112;2024-01-30T15:30:26;10.55;;;8.25;;
69856;SDS011;57147;53.582;10.112;2024-01-30T15:35:26;12.48;;;7.68;;
69856;SDS011;57147;53.582;10.112;2024-01-30T15:40:26;14.02;;;8.05;;
69856;SDS011;57147;53.582;10.112;2024-01-30T15:45:27;10.77;;;7.70;;
69856;SDS011;57147;53.582;10.112;2024-01-30T15:50:27;13.82;;;7.95;;
69856;SDS011;57147;53.582;10.112;2024-01-30T15:55:27;12.20;;;6.88;;
69856;SDS011;57147;53.582;10.112;2024-01-30T16:00:27;12.30;;;7.22;;
69856;SDS011;57147;53.582;10.112;2024-01-30T16:05:28;12.60;;;7.65;;
69856;SDS011;57147;53.582;10.112;2024-01-30T16:10:28;13.68;;;8.05;;
69856;SDS011;57147;53.582;10.112;2024-01-30T16:15:28;11.93;;;7.50;;
69856;SDS011;57147;53.582;10.112;2024-01-30T16:20:28;11.50;;;7.73;;
69856;SDS011;57147;53.582;10.112;2024-01-30T16:25:29;11.52;;;7.88;;
69856;SDS011;57147;53.582;10.112;2024-01-30T16:30:29;10.57;;;7.40;;
69856;SDS011;57147;53.582;10.112;2024-01-30T16:35:29;11.90;;;7.13;;
69856;SDS011;57147;53.582;10.112;2024-01-30T16:40:29;12.98;;;7.53;;
69856;SDS011;57147;53.582;10.112;2024-01-30T16:45:29;12.05;;;7.43;;
69856;SDS011;57147;53.582;10.112;2024-01-30T16:50:30;13.35;;;8.00;;
69856;SDS011;57147;53.582;10.112;2024-01-30T16:55:30;13.27;;;8.52;;
69856;SDS011;57147;53.582;10.112;2024-01-30T17:00:30;11.85;;;8.05;;
69856;SDS011;57147;53.582;10.112;2024-01-30T17:05:31;10.85;;;7.55;;
69856;SDS011;57147;53.582;10.112;2024-01-30T17:10:31;14.00;;;7.93;;
69856;SDS011;57147;53.582;10.112;2024-01-30T17:15:31;13.90;;;7.45;;
69856;SDS011;57147;53.582;10.112;2024-01-30T17:20:31;11.23;;;7.57;;
69856;SDS011;57147;53.582;10.112;2024-01-30T17:25:32;10.23;;;7.13;;
69856;SDS011;57147;53.582;10.112;2024-01-30T17:30:32;10.73;;;6.45;;
69856;SDS011;57147;53.582;10.112;2024-01-30T17:35:32;12.18;;;7.75;;
69856;SDS011;57147;53.582;10.112;2024-01-30T17:40:32;10.57;;;7.05;;
69856;SDS011;57147;53.582;10.112;2024-01-30T17:45:32;10.20;;;6.88;;
69856;SDS011;57147;53.582;10.112;2024-01-30T17:50:33;8.90;;;5.78;;
69856;SDS011;57147;53.582;10.112;2024-01-30T17:55:33;10.38;;;7.85;;
69856;SDS011;57147;53.582;10.112;2024-01-30T18:00:33;11.55;;;7.38;;
69856;SDS011;57147;53.582;10.112;2024-01-30T18:05:42;10.65;;;6.57;;
69856;SDS011;57147;53.582;10.112;2024-01-30T18:10:42;10.98;;;6.65;;
69856;SDS011;57147;53.582;10.112;2024-01-30T18:15:43;11.32;;;7.18;;
69856;SDS011;57147;53.582;10.112;2024-01-30T18:20:43;12.33;;;7.60;;
69856;SDS011;57147;53.582;10.112;2024-01-30T18:25:43;12.00;;;7.45;;
69856;SDS011;57147;53.582;10.112;2024-01-30T18:30:44;10.07;;;6.47;;
69856;SDS011;57147;53.582;10.112;2024-01-30T18:35:44;9.80;;;6.53;;
69856;SDS011;57147;53.582;10.112;2024-01-30T18:40:44;9.00;;;6.00;;
69856;SDS011;57147;53.582;10.112;2024-01-30T18:45:51;11.05;;;5.93;;
69856;SDS011;57147;53.582;10.112;2024-01-30T18:50:52;9.20;;;5.50;;
69856;SDS011;57147;53.582;10.112;2024-01-30T18:55:52;7.53;;;5.18;;
69856;SDS011;57147;53.582;10.112;2024-01-30T19:00:53;8.15;;;5.40;;
69856;SDS011;57147;53.582;10.112;2024-01-30T19:05:53;9.15;;;6.40;;
69856;SDS011;57147;53.582;10.112;2024-01-30T19:10:53;7.00;;;4.22;;
69856;SDS011;57147;53.582;10.112;2024-01-30T19:15:53;7.68;;;4.55;;
69856;SDS011;57147;53.582;10.112;2024-01-30T19:20:54;6.00;;;3.90;;
69856;SDS011;57147;53.582;10.112;2024-01-30T19:25:54;7.20;;;4.25;;
69856;SDS011;57147;53.582;10.112;2024-01-30T19:30:54;5.27;;;3.73;;
69856;SDS011;57147;53.582;10.112;2024-01-30T19:35:55;6.10;;;3.65;;
69856;SDS011;57147;53.582;10.112;2024-01-30T19:40:55;4.30;;;2.00;;
69856;SDS011;57147;53.582;10.112;2024-01-30T19:45:55;4.30;;;1.95;;
69856;SDS011;57147;53.582;10.112;2024-01-30T19:50:55;2.65;;;2.17;;
69856;SDS011;57147;53.582;10.112;2024-01-30T19:56:08;3.47;;;2.08;;
69856;SDS011;57147;53.582;10.112;2024-01-30T20:01:08;3.00;;;2.08;;
69856;SDS011;57147;53.582;10.112;2024-01-30T20:06:19;2.05;;;1.20;;
69856;SDS011;57147;53.582;10.112;2024-01-30T20:11:19;3.88;;;2.08;;
69856;SDS011;57147;53.582;10.112;2024-01-30T20:16:20;4.65;;;1.85;;
69856;SDS011;57147;53.582;10.112;2024-01-30T20:21:20;7.65;;;4.00;;
69856;SDS011;57147;53.582;10.112;2024-01-30T20:26:20;2.90;;;2.25;;
69856;SDS011;57147;53.582;10.112;2024-01-30T20:31:21;5.35;;;3.80;;
69856;SDS011;57147;53.582;10.112;2024-01-30T20:36:21;5.88;;;3.20;;
69856;SDS011;57147;53.582;10.112;2024-01-30T20:41:22;4.60;;;3.20;;
69856;SDS011;57147;53.582;10.112;2024-01-30T20:46:22;5.33;;;3.60;;
69856;SDS011;57147;53.582;10.112;2024-01-30T20:51:22;6.22;;;2.60;;
69856;SDS011;57147;53.582;10.112;2024-01-30T20:56:23;7.70;;;4.07;;
69856;SDS011;57147;53.582;10.112;2024-01-30T21:01:23;4.93;;;3.60;;
69856;SDS011;57147;53.582;10.112;2024-01-30T21:06:24;8.05;;;3.13;;
69856;SDS011;57147;53.582;10.112;2024-01-30T21:11:24;4.75;;;3.05;;
69856;SDS011;57147;53.582;10.112;2024-01-30T21:16:24;2.90;;;1.92;;
69856;SDS011;57147;53.582;10.112;2024-01-30T21:21:25;4.63;;;3.17;;
69856;SDS011;57147;53.582;10.112;2024-01-30T21:26:25;3.90;;;3.28;;
69856;SDS011;57147;53.582;10.112;2024-01-30T21:31:25;4.75;;;3.35;;
69856;SDS011;57147;53.582;10.112;2024-01-30T21:36:25;3.50;;;2.93;;
69856;SDS011;57147;53.582;10.112;2024-01-30T21:41:26;4.40;;;3.30;;
69856;SDS011;57147;53.582;10.112;2024-01-30T21:46:26;2.97;;;2.70;;
69856;SDS011;57147;53.582;10.112;2024-01-30T21:51:27;3.00;;;1.77;;
69856;SDS011;57147;53.582;10.112;2024-01-30T21:56:27;1.77;;;1.17;;
69856;SDS011;57147;53.582;10.112;2024-01-30T22:01:27;2.33;;;1.77;;
69856;SDS011;57147;53.582;10.112;2024-01-30T22:06:28;2.50;;;1.42;;
69856;SDS011;57147;53.582;10.112;2024-01-30T22:11:28;2.80;;;1.27;;
69856;SDS011;57147;53.582;10.112;2024-01-30T22:16:28;3.55;;;1.83;;
69856;SDS011;57147;53.582;10.112;2024-01-30T22:21:28;2.20;;;2.00;;
69856;SDS011;57147;53.582;10.112;2024-01-30T22:26:29;3.13;;;2.08;;
69856;SDS011;57147;53.582;10.112;2024-01-30T22:31:29;3.03;;;2.83;;
69856;SDS011;57147;53.582;10.112;2024-01-30T22:36:29;5.70;;;1.97;;
69856;SDS011;57147;53.582;10.112;2024-01-30T22:41:30;1.90;;;1.67;;
69856;SDS011;57147;53.582;10.112;2024-01-30T22:46:30;2.13;;;1.15;;
69856;SDS011;57147;53.582;10.112;2024-01-30T22:51:30;1.65;;;1.55;;
69856;SDS011;57147;53.582;10.112;2024-01-30T22:56:30;1.85;;;1.48;;
69856;SDS011;57147;53.582;10.112;2024-01-30T23:01:31;1.67;;;1.58;;
69856;SDS011;57147;53.582;10.112;2024-01-30T23:06:31;2.45;;;0.82;;
69856;SDS011;57147;53.582;10.112;2024-01-30T23:11:31;2.90;;;1.50;;
69856;SDS011;57147;53.582;10.112;2024-01-30T23:16:32;2.78;;;0.95;;
69856;SDS011;57147;53.582;10.112;2024-01-30T23:21:32;2.80;;;2.20;;
69856;SDS011;57147;53.582;10.112;2024-01-30T23:26:32;1.50;;;1.40;;
69856;SDS011;57147;53.582;10.112;2024-01-30T23:31:32;5.40;;;3.22;;
69856;SDS011;57147;53.582;10.112;2024-01-30T23:36:33;2.17;;;1.20;;
69856;SDS011;57147;53.582;10.112;2024-01-30T23:41:39;4.68;;;0.88;;
69856;SDS011;57147;53.582;10.112;2024-01-30T23:46:39;3.33;;;1.48;;
69856;SDS011;57147;53.582;10.112;2024-01-30T23:51:39;3.33;;;1.20;;
69856;SDS011;57147;53.582;10.112;2024-01-30T23:56:40;2.35;;;1.00;;
